LiveATC.Net - Listen to live air traffic control over the Internet! Contact for advertising information

ICAO: KFAR  IATA: FAR   Airport: Hector International Airport
City: Fargo   State/Province: North Dakota
Country: United States   Continent: North America
KFAR METAR Weather: KFAR 060453Z 28004KT 10SM OVC034 13/08 A3011 RMK AO2 SLP198 T01330083
KFAR Flight Activity (FlightAware)
KFAR Airport Info   (AirNav) (iFlightPlanner)
KFAR VFR Sectional Chart   (iFlightPlanner) 
KFAR IFR Low Chart   (iFlightPlanner) 
KFAR Approach/Departure
Feed Status: DOWN
Last heard on: 2015-09-16 09:41:02 (19 days 19 hours 52 minutes ago)
KFAR Approach/Departure Audio Archives
Fargo Approach/Departure120.400

KFAR Tower
Feed Status: DOWN
Last heard on: 2015-09-16 10:01:02 (19 days 19 hours 32 minutes ago)
KFAR Tower Audio Archives
Fargo Tower133.800


Unauthorized use prohibited. See Terms of Service

Find LiveATC Audio Streams

Airport/ARTCC Code

(e.g., 124.400, 128.75)
Site-wide search

Browse LiveATC Feeds
LiveATC Coverage Map
Top 50 LiveATC Feeds
Bad Weather Areas

Offer a LiveATC Feed
Press Inquiries

LiveATC on iPhone
LiveATC on Android

LiveATC Mobile
(Mobile browser)

ATC Audio Archives
Interesting Recordings

LiveATC Forums

Home Page
Make a Donation
LiveATC Bookstore

Terms of Use
Privacy Policy

ATC/Radar Sites
U.S. ARTCC Freqs
Canadian Air Freqs


FAA Airport Status
Nat'l Airspace Status
Arrival Demand Charts

Server Software By:

Please make a donation to help us keep growing!